sensor_id;sensor_type;location;lat;lon;timestamp;P1;durP1;ratioP1;P2;durP2;ratioP2
8556;SDS011;4316;53.840;10.762;2023-12-28T00:00:04;7.30;;;3.47;;
8556;SDS011;4316;53.840;10.762;2023-12-28T00:02:30;7.80;;;3.57;;
8556;SDS011;4316;53.840;10.762;2023-12-28T00:04:56;11.53;;;5.33;;
8556;SDS011;4316;53.840;10.762;2023-12-28T00:07:21;10.17;;;4.37;;
8556;SDS011;4316;53.840;10.762;2023-12-28T00:09:47;6.57;;;4.00;;
8556;SDS011;4316;53.840;10.762;2023-12-28T00:12:13;8.73;;;3.80;;
8556;SDS011;4316;53.840;10.762;2023-12-28T00:14:38;2.57;;;2.37;;
8556;SDS011;4316;53.840;10.762;2023-12-28T00:17:04;5.90;;;3.30;;
8556;SDS011;4316;53.840;10.762;2023-12-28T00:19:29;4.93;;;3.43;;
8556;SDS011;4316;53.840;10.762;2023-12-28T00:21:55;7.13;;;3.20;;
8556;SDS011;4316;53.840;10.762;2023-12-28T00:24:20;7.33;;;2.93;;
8556;SDS011;4316;53.840;10.762;2023-12-28T00:26:46;2.27;;;1.80;;
8556;SDS011;4316;53.840;10.762;2023-12-28T00:29:12;6.50;;;3.53;;
8556;SDS011;4316;53.840;10.762;2023-12-28T00:31:38;8.90;;;3.43;;
8556;SDS011;4316;53.840;10.762;2023-12-28T00:34:03;6.47;;;3.27;;
8556;SDS011;4316;53.840;10.762;2023-12-28T00:36:29;5.90;;;2.80;;
8556;SDS011;4316;53.840;10.762;2023-12-28T00:38:54;7.70;;;3.53;;
8556;SDS011;4316;53.840;10.762;2023-12-28T00:41:20;9.43;;;3.63;;
8556;SDS011;4316;53.840;10.762;2023-12-28T00:43:45;6.03;;;3.40;;
8556;SDS011;4316;53.840;10.762;2023-12-28T00:46:11;4.23;;;3.17;;
8556;SDS011;4316;53.840;10.762;2023-12-28T00:48:37;6.80;;;3.43;;
8556;SDS011;4316;53.840;10.762;2023-12-28T00:51:03;5.67;;;3.13;;
8556;SDS011;4316;53.840;10.762;2023-12-28T00:53:28;5.53;;;2.87;;
8556;SDS011;4316;53.840;10.762;2023-12-28T00:55:54;4.87;;;2.93;;
8556;SDS011;4316;53.840;10.762;2023-12-28T00:58:21;7.47;;;2.83;;
8556;SDS011;4316;53.840;10.762;2023-12-28T01:00:46;4.03;;;2.43;;
8556;SDS011;4316;53.840;10.762;2023-12-28T01:03:12;5.63;;;2.57;;
8556;SDS011;4316;53.840;10.762;2023-12-28T01:05:38;3.53;;;2.00;;
8556;SDS011;4316;53.840;10.762;2023-12-28T01:08:03;3.27;;;2.20;;
8556;SDS011;4316;53.840;10.762;2023-12-28T01:10:29;2.70;;;2.20;;
8556;SDS011;4316;53.840;10.762;2023-12-28T01:12:54;3.57;;;2.20;;
8556;SDS011;4316;53.840;10.762;2023-12-28T01:15:20;6.17;;;2.20;;
8556;SDS011;4316;53.840;10.762;2023-12-28T01:17:46;2.53;;;2.00;;
8556;SDS011;4316;53.840;10.762;2023-12-28T01:20:12;3.77;;;2.20;;
8556;SDS011;4316;53.840;10.762;2023-12-28T01:22:38;2.40;;;2.17;;
8556;SDS011;4316;53.840;10.762;2023-12-28T01:25:03;2.50;;;2.00;;
8556;SDS011;4316;53.840;10.762;2023-12-28T01:27:29;5.23;;;1.90;;
8556;SDS011;4316;53.840;10.762;2023-12-28T01:29:55;2.63;;;1.90;;
8556;SDS011;4316;53.840;10.762;2023-12-28T01:32:21;7.83;;;2.43;;
8556;SDS011;4316;53.840;10.762;2023-12-28T01:34:47;4.73;;;2.23;;
8556;SDS011;4316;53.840;10.762;2023-12-28T01:37:12;5.47;;;2.57;;
8556;SDS011;4316;53.840;10.762;2023-12-28T01:39:38;2.23;;;1.70;;
8556;SDS011;4316;53.840;10.762;2023-12-28T01:42:04;2.53;;;2.03;;
8556;SDS011;4316;53.840;10.762;2023-12-28T01:44:30;2.07;;;1.93;;
8556;SDS011;4316;53.840;10.762;2023-12-28T01:46:55;2.90;;;2.00;;
8556;SDS011;4316;53.840;10.762;2023-12-28T01:49:21;6.57;;;2.27;;
8556;SDS011;4316;53.840;10.762;2023-12-28T01:51:48;6.70;;;2.10;;
8556;SDS011;4316;53.840;10.762;2023-12-28T01:54:14;4.90;;;1.97;;
8556;SDS011;4316;53.840;10.762;2023-12-28T01:56:41;2.03;;;1.83;;
8556;SDS011;4316;53.840;10.762;2023-12-28T01:59:08;3.97;;;1.93;;
8556;SDS011;4316;53.840;10.762;2023-12-28T02:01:34;6.30;;;2.40;;
8556;SDS011;4316;53.840;10.762;2023-12-28T02:03:59;1.83;;;1.73;;
8556;SDS011;4316;53.840;10.762;2023-12-28T02:06:26;1.97;;;1.50;;
8556;SDS011;4316;53.840;10.762;2023-12-28T02:08:51;2.20;;;2.00;;
8556;SDS011;4316;53.840;10.762;2023-12-28T02:11:18;3.27;;;2.20;;
8556;SDS011;4316;53.840;10.762;2023-12-28T02:13:44;3.33;;;2.10;;
8556;SDS011;4316;53.840;10.762;2023-12-28T02:16:12;4.83;;;2.13;;
8556;SDS011;4316;53.840;10.762;2023-12-28T02:18:45;2.07;;;1.87;;
8556;SDS011;4316;53.840;10.762;2023-12-28T02:21:14;4.93;;;2.20;;
8556;SDS011;4316;53.840;10.762;2023-12-28T02:23:46;5.17;;;2.20;;
8556;SDS011;4316;53.840;10.762;2023-12-28T02:26:15;3.30;;;1.90;;
8556;SDS011;4316;53.840;10.762;2023-12-28T02:28:41;2.00;;;1.90;;
8556;SDS011;4316;53.840;10.762;2023-12-28T02:31:08;3.00;;;1.90;;
8556;SDS011;4316;53.840;10.762;2023-12-28T02:33:50;4.33;;;2.10;;
8556;SDS011;4316;53.840;10.762;2023-12-28T02:36:23;3.33;;;2.10;;
8556;SDS011;4316;53.840;10.762;2023-12-28T02:38:51;3.90;;;2.07;;
8556;SDS011;4316;53.840;10.762;2023-12-28T02:41:21;7.40;;;2.00;;
8556;SDS011;4316;53.840;10.762;2023-12-28T02:43:48;2.77;;;1.70;;
8556;SDS011;4316;53.840;10.762;2023-12-28T02:46:13;4.73;;;1.97;;
8556;SDS011;4316;53.840;10.762;2023-12-28T02:48:39;1.80;;;1.70;;
8556;SDS011;4316;53.840;10.762;2023-12-28T02:51:04;2.33;;;1.80;;
8556;SDS011;4316;53.840;10.762;2023-12-28T02:53:30;2.77;;;2.23;;
8556;SDS011;4316;53.840;10.762;2023-12-28T02:55:56;7.10;;;2.17;;
8556;SDS011;4316;53.840;10.762;2023-12-28T02:58:21;2.13;;;1.93;;
8556;SDS011;4316;53.840;10.762;2023-12-28T03:00:47;3.10;;;1.90;;
8556;SDS011;4316;53.840;10.762;2023-12-28T03:03:14;5.27;;;2.20;;
8556;SDS011;4316;53.840;10.762;2023-12-28T03:05:40;3.40;;;2.37;;
8556;SDS011;4316;53.840;10.762;2023-12-28T03:08:06;2.20;;;2.00;;
8556;SDS011;4316;53.840;10.762;2023-12-28T03:10:32;6.30;;;2.30;;
8556;SDS011;4316;53.840;10.762;2023-12-28T03:12:58;5.57;;;2.33;;
8556;SDS011;4316;53.840;10.762;2023-12-28T03:15:24;3.77;;;2.20;;
8556;SDS011;4316;53.840;10.762;2023-12-28T03:17:50;3.03;;;2.43;;
8556;SDS011;4316;53.840;10.762;2023-12-28T03:20:15;4.20;;;2.00;;
8556;SDS011;4316;53.840;10.762;2023-12-28T03:22:42;4.90;;;2.60;;
8556;SDS011;4316;53.840;10.762;2023-12-28T03:25:07;4.70;;;2.60;;
8556;SDS011;4316;53.840;10.762;2023-12-28T03:27:33;8.37;;;2.33;;
8556;SDS011;4316;53.840;10.762;2023-12-28T03:29:58;2.50;;;2.40;;
8556;SDS011;4316;53.840;10.762;2023-12-28T03:32:24;2.70;;;2.00;;
8556;SDS011;4316;53.840;10.762;2023-12-28T03:34:50;2.37;;;2.00;;
8556;SDS011;4316;53.840;10.762;2023-12-28T03:37:15;5.97;;;2.60;;
8556;SDS011;4316;53.840;10.762;2023-12-28T03:39:41;8.67;;;2.80;;
8556;SDS011;4316;53.840;10.762;2023-12-28T03:42:06;2.70;;;2.40;;
8556;SDS011;4316;53.840;10.762;2023-12-28T03:44:32;5.17;;;2.40;;
8556;SDS011;4316;53.840;10.762;2023-12-28T03:46:57;3.73;;;2.70;;
8556;SDS011;4316;53.840;10.762;2023-12-28T03:49:23;7.83;;;2.80;;
8556;SDS011;4316;53.840;10.762;2023-12-28T03:51:49;6.43;;;2.93;;
8556;SDS011;4316;53.840;10.762;2023-12-28T03:54:16;2.10;;;2.00;;
8556;SDS011;4316;53.840;10.762;2023-12-28T03:56:42;9.43;;;2.00;;
8556;SDS011;4316;53.840;10.762;2023-12-28T03:59:08;4.97;;;2.27;;
8556;SDS011;4316;53.840;10.762;2023-12-28T04:01:34;6.10;;;2.77;;
8556;SDS011;4316;53.840;10.762;2023-12-28T04:04:00;2.60;;;1.93;;
8556;SDS011;4316;53.840;10.762;2023-12-28T04:06:26;3.60;;;2.17;;
8556;SDS011;4316;53.840;10.762;2023-12-28T04:08:51;3.03;;;2.00;;
8556;SDS011;4316;53.840;10.762;2023-12-28T04:11:17;6.00;;;2.60;;
8556;SDS011;4316;53.840;10.762;2023-12-28T04:13:43;2.80;;;2.40;;
8556;SDS011;4316;53.840;10.762;2023-12-28T04:16:11;3.90;;;2.57;;
8556;SDS011;4316;53.840;10.762;2023-12-28T04:18:38;5.33;;;2.70;;
8556;SDS011;4316;53.840;10.762;2023-12-28T04:21:07;3.70;;;2.87;;
8556;SDS011;4316;53.840;10.762;2023-12-28T04:23:34;5.07;;;2.63;;
8556;SDS011;4316;53.840;10.762;2023-12-28T04:25:59;2.63;;;2.33;;
8556;SDS011;4316;53.840;10.762;2023-12-28T04:28:25;4.60;;;2.80;;
8556;SDS011;4316;53.840;10.762;2023-12-28T04:30:50;5.33;;;2.53;;
8556;SDS011;4316;53.840;10.762;2023-12-28T04:33:19;2.40;;;2.23;;
8556;SDS011;4316;53.840;10.762;2023-12-28T04:35:46;6.73;;;2.53;;
8556;SDS011;4316;53.840;10.762;2023-12-28T04:38:11;4.70;;;2.40;;
8556;SDS011;4316;53.840;10.762;2023-12-28T04:40:37;3.90;;;2.20;;
8556;SDS011;4316;53.840;10.762;2023-12-28T04:43:03;2.77;;;2.43;;
8556;SDS011;4316;53.840;10.762;2023-12-28T04:45:29;6.53;;;2.53;;
8556;SDS011;4316;53.840;10.762;2023-12-28T04:47:55;3.17;;;2.47;;
8556;SDS011;4316;53.840;10.762;2023-12-28T04:50:20;4.47;;;2.80;;
8556;SDS011;4316;53.840;10.762;2023-12-28T04:52:48;3.07;;;2.30;;
8556;SDS011;4316;53.840;10.762;2023-12-28T04:55:13;6.00;;;2.63;;
8556;SDS011;4316;53.840;10.762;2023-12-28T04:57:40;4.20;;;2.87;;
8556;SDS011;4316;53.840;10.762;2023-12-28T05:00:07;2.50;;;2.30;;
8556;SDS011;4316;53.840;10.762;2023-12-28T05:02:33;4.90;;;2.70;;
8556;SDS011;4316;53.840;10.762;2023-12-28T05:05:00;3.27;;;2.30;;
8556;SDS011;4316;53.840;10.762;2023-12-28T05:07:26;14.83;;;3.07;;
8556;SDS011;4316;53.840;10.762;2023-12-28T05:09:51;5.93;;;3.07;;
8556;SDS011;4316;53.840;10.762;2023-12-28T05:12:17;3.13;;;2.77;;
8556;SDS011;4316;53.840;10.762;2023-12-28T05:14:42;3.87;;;2.27;;
8556;SDS011;4316;53.840;10.762;2023-12-28T05:17:08;3.10;;;2.17;;
8556;SDS011;4316;53.840;10.762;2023-12-28T05:19:33;6.33;;;2.50;;
8556;SDS011;4316;53.840;10.762;2023-12-28T05:21:59;3.53;;;2.00;;
8556;SDS011;4316;53.840;10.762;2023-12-28T05:24:28;4.53;;;2.30;;
8556;SDS011;4316;53.840;10.762;2023-12-28T05:26:54;5.40;;;2.77;;
8556;SDS011;4316;53.840;10.762;2023-12-28T05:29:20;3.27;;;2.40;;
8556;SDS011;4316;53.840;10.762;2023-12-28T05:31:45;4.20;;;2.53;;
8556;SDS011;4316;53.840;10.762;2023-12-28T05:34:11;4.37;;;3.13;;
8556;SDS011;4316;53.840;10.762;2023-12-28T05:36:36;7.83;;;4.10;;
8556;SDS011;4316;53.840;10.762;2023-12-28T05:39:02;7.93;;;3.00;;
8556;SDS011;4316;53.840;10.762;2023-12-28T05:41:28;5.57;;;2.43;;
8556;SDS011;4316;53.840;10.762;2023-12-28T05:43:53;2.57;;;2.30;;
8556;SDS011;4316;53.840;10.762;2023-12-28T05:46:19;4.67;;;2.57;;
8556;SDS011;4316;53.840;10.762;2023-12-28T05:48:44;4.60;;;2.77;;
8556;SDS011;4316;53.840;10.762;2023-12-28T05:51:10;3.93;;;2.87;;
8556;SDS011;4316;53.840;10.762;2023-12-28T05:53:36;5.20;;;2.90;;
8556;SDS011;4316;53.840;10.762;2023-12-28T05:56:02;4.67;;;2.70;;
8556;SDS011;4316;53.840;10.762;2023-12-28T05:58:29;2.63;;;2.20;;
8556;SDS011;4316;53.840;10.762;2023-12-28T06:00:54;6.80;;;2.70;;
8556;SDS011;4316;53.840;10.762;2023-12-28T06:03:20;9.70;;;2.43;;
8556;SDS011;4316;53.840;10.762;2023-12-28T06:05:46;3.50;;;3.03;;
8556;SDS011;4316;53.840;10.762;2023-12-28T06:08:11;5.50;;;2.47;;
8556;SDS011;4316;53.840;10.762;2023-12-28T06:10:37;4.53;;;2.47;;
8556;SDS011;4316;53.840;10.762;2023-12-28T06:13:03;6.10;;;2.73;;
8556;SDS011;4316;53.840;10.762;2023-12-28T06:15:28;3.47;;;2.67;;
8556;SDS011;4316;53.840;10.762;2023-12-28T06:17:54;6.47;;;2.90;;
8556;SDS011;4316;53.840;10.762;2023-12-28T06:20:19;2.60;;;2.40;;
8556;SDS011;4316;53.840;10.762;2023-12-28T06:22:45;4.03;;;2.50;;
8556;SDS011;4316;53.840;10.762;2023-12-28T06:25:13;5.23;;;2.30;;
8556;SDS011;4316;53.840;10.762;2023-12-28T06:27:39;4.53;;;2.43;;
8556;SDS011;4316;53.840;10.762;2023-12-28T06:30:05;6.80;;;2.10;;
8556;SDS011;4316;53.840;10.762;2023-12-28T06:32:31;5.10;;;2.67;;
8556;SDS011;4316;53.840;10.762;2023-12-28T06:34:57;6.03;;;2.80;;
8556;SDS011;4316;53.840;10.762;2023-12-28T06:37:22;4.53;;;2.30;;
8556;SDS011;4316;53.840;10.762;2023-12-28T06:39:48;6.93;;;2.27;;
8556;SDS011;4316;53.840;10.762;2023-12-28T06:42:14;3.23;;;2.50;;
8556;SDS011;4316;53.840;10.762;2023-12-28T06:44:40;5.27;;;2.53;;
8556;SDS011;4316;53.840;10.762;2023-12-28T06:47:05;5.90;;;2.33;;
8556;SDS011;4316;53.840;10.762;2023-12-28T06:49:31;4.57;;;2.63;;
8556;SDS011;4316;53.840;10.762;2023-12-28T06:51:57;7.70;;;2.33;;
8556;SDS011;4316;53.840;10.762;2023-12-28T06:54:22;5.67;;;2.83;;
8556;SDS011;4316;53.840;10.762;2023-12-28T06:56:49;7.00;;;2.40;;
8556;SDS011;4316;53.840;10.762;2023-12-28T06:59:16;9.77;;;2.67;;
8556;SDS011;4316;53.840;10.762;2023-12-28T07:01:42;5.63;;;2.03;;
8556;SDS011;4316;53.840;10.762;2023-12-28T07:04:09;7.50;;;2.60;;
8556;SDS011;4316;53.840;10.762;2023-12-28T07:06:34;7.40;;;2.23;;
8556;SDS011;4316;53.840;10.762;2023-12-28T07:09:00;2.83;;;1.97;;
8556;SDS011;4316;53.840;10.762;2023-12-28T07:11:27;2.73;;;2.00;;
8556;SDS011;4316;53.840;10.762;2023-12-28T07:13:52;8.20;;;3.30;;
8556;SDS011;4316;53.840;10.762;2023-12-28T07:16:18;6.73;;;2.50;;
8556;SDS011;4316;53.840;10.762;2023-12-28T07:18:44;8.40;;;2.50;;
8556;SDS011;4316;53.840;10.762;2023-12-28T07:21:09;4.97;;;2.33;;
8556;SDS011;4316;53.840;10.762;2023-12-28T07:23:35;9.43;;;2.63;;
8556;SDS011;4316;53.840;10.762;2023-12-28T07:26:01;10.37;;;2.47;;
8556;SDS011;4316;53.840;10.762;2023-12-28T07:28:27;4.57;;;1.90;;
8556;SDS011;4316;53.840;10.762;2023-12-28T07:30:53;4.63;;;2.43;;
8556;SDS011;4316;53.840;10.762;2023-12-28T07:33:19;6.07;;;2.57;;
8556;SDS011;4316;53.840;10.762;2023-12-28T07:35:45;7.00;;;2.37;;
8556;SDS011;4316;53.840;10.762;2023-12-28T07:38:11;10.93;;;2.50;;
8556;SDS011;4316;53.840;10.762;2023-12-28T07:40:37;6.27;;;2.40;;
8556;SDS011;4316;53.840;10.762;2023-12-28T07:43:03;8.67;;;2.30;;
8556;SDS011;4316;53.840;10.762;2023-12-28T07:45:29;9.73;;;2.37;;
8556;SDS011;4316;53.840;10.762;2023-12-28T07:47:55;7.27;;;2.00;;
8556;SDS011;4316;53.840;10.762;2023-12-28T07:50:20;4.83;;;2.43;;
8556;SDS011;4316;53.840;10.762;2023-12-28T07:52:46;14.00;;;2.90;;
8556;SDS011;4316;53.840;10.762;2023-12-28T07:55:13;12.17;;;2.83;;
8556;SDS011;4316;53.840;10.762;2023-12-28T07:57:39;8.00;;;2.70;;
8556;SDS011;4316;53.840;10.762;2023-12-28T08:00:06;9.33;;;2.23;;
8556;SDS011;4316;53.840;10.762;2023-12-28T08:02:32;6.60;;;2.30;;
8556;SDS011;4316;53.840;10.762;2023-12-28T08:04:58;10.23;;;2.77;;
8556;SDS011;4316;53.840;10.762;2023-12-28T08:07:24;3.67;;;2.43;;
8556;SDS011;4316;53.840;10.762;2023-12-28T08:09:49;10.07;;;2.50;;
8556;SDS011;4316;53.840;10.762;2023-12-28T08:12:15;4.97;;;2.10;;
8556;SDS011;4316;53.840;10.762;2023-12-28T08:14:42;5.47;;;2.30;;
8556;SDS011;4316;53.840;10.762;2023-12-28T08:17:08;10.73;;;2.07;;
8556;SDS011;4316;53.840;10.762;2023-12-28T08:19:33;12.80;;;3.23;;
8556;SDS011;4316;53.840;10.762;2023-12-28T08:21:59;6.07;;;2.27;;
8556;SDS011;4316;53.840;10.762;2023-12-28T08:24:24;9.10;;;2.73;;
8556;SDS011;4316;53.840;10.762;2023-12-28T08:26:50;6.73;;;2.53;;
8556;SDS011;4316;53.840;10.762;2023-12-28T08:29:16;6.43;;;2.20;;
8556;SDS011;4316;53.840;10.762;2023-12-28T08:31:43;5.87;;;2.50;;
8556;SDS011;4316;53.840;10.762;2023-12-28T08:34:08;8.80;;;2.13;;
8556;SDS011;4316;53.840;10.762;2023-12-28T08:36:34;7.70;;;2.30;;
8556;SDS011;4316;53.840;10.762;2023-12-28T08:38:59;5.97;;;2.30;;
8556;SDS011;4316;53.840;10.762;2023-12-28T08:41:25;5.27;;;1.67;;
8556;SDS011;4316;53.840;10.762;2023-12-28T08:43:52;13.87;;;2.60;;
8556;SDS011;4316;53.840;10.762;2023-12-28T08:46:21;9.60;;;3.60;;
8556;SDS011;4316;53.840;10.762;2023-12-28T08:48:47;6.80;;;2.97;;
8556;SDS011;4316;53.840;10.762;2023-12-28T08:51:13;5.00;;;2.63;;
8556;SDS011;4316;53.840;10.762;2023-12-28T08:53:42;8.03;;;2.63;;
8556;SDS011;4316;53.840;10.762;2023-12-28T08:56:21;6.97;;;2.57;;
8556;SDS011;4316;53.840;10.762;2023-12-28T08:58:48;8.50;;;2.83;;
8556;SDS011;4316;53.840;10.762;2023-12-28T09:01:18;7.57;;;2.33;;
8556;SDS011;4316;53.840;10.762;2023-12-28T09:03:49;11.83;;;2.07;;
8556;SDS011;4316;53.840;10.762;2023-12-28T09:06:18;8.40;;;1.97;;
8556;SDS011;4316;53.840;10.762;2023-12-28T09:08:46;6.43;;;2.00;;
8556;SDS011;4316;53.840;10.762;2023-12-28T09:11:14;5.20;;;2.00;;
8556;SDS011;4316;53.840;10.762;2023-12-28T09:13:40;5.70;;;2.63;;
8556;SDS011;4316;53.840;10.762;2023-12-28T09:16:10;4.60;;;2.00;;
8556;SDS011;4316;53.840;10.762;2023-12-28T09:18:38;7.13;;;2.30;;
8556;SDS011;4316;53.840;10.762;2023-12-28T09:21:04;5.70;;;2.00;;
8556;SDS011;4316;53.840;10.762;2023-12-28T09:23:34;7.60;;;2.60;;
8556;SDS011;4316;53.840;10.762;2023-12-28T09:26:00;5.70;;;2.57;;
8556;SDS011;4316;53.840;10.762;2023-12-28T09:28:28;10.17;;;2.83;;
8556;SDS011;4316;53.840;10.762;2023-12-28T09:30:54;6.17;;;1.63;;
8556;SDS011;4316;53.840;10.762;2023-12-28T09:33:19;8.10;;;1.87;;
8556;SDS011;4316;53.840;10.762;2023-12-28T09:35:45;6.27;;;2.27;;
8556;SDS011;4316;53.840;10.762;2023-12-28T09:38:11;8.93;;;2.57;;
8556;SDS011;4316;53.840;10.762;2023-12-28T09:40:36;15.33;;;2.67;;
8556;SDS011;4316;53.840;10.762;2023-12-28T09:45:48;5.90;;;2.57;;
8556;SDS011;4316;53.840;10.762;2023-12-28T09:48:18;13.63;;;2.37;;
8556;SDS011;4316;53.840;10.762;2023-12-28T09:50:45;4.93;;;2.00;;
8556;SDS011;4316;53.840;10.762;2023-12-28T09:53:15;4.80;;;1.80;;
8556;SDS011;4316;53.840;10.762;2023-12-28T09:55:41;9.07;;;2.37;;
8556;SDS011;4316;53.840;10.762;2023-12-28T09:58:08;8.43;;;1.60;;
8556;SDS011;4316;53.840;10.762;2023-12-28T10:00:35;9.33;;;2.63;;
8556;SDS011;4316;53.840;10.762;2023-12-28T10:03:02;3.83;;;2.30;;
8556;SDS011;4316;53.840;10.762;2023-12-28T10:05:28;7.20;;;2.30;;
8556;SDS011;4316;53.840;10.762;2023-12-28T10:07:53;14.37;;;2.87;;
8556;SDS011;4316;53.840;10.762;2023-12-28T10:10:21;7.90;;;1.93;;
8556;SDS011;4316;53.840;10.762;2023-12-28T10:12:47;8.40;;;2.57;;
8556;SDS011;4316;53.840;10.762;2023-12-28T10:15:13;7.33;;;2.37;;
8556;SDS011;4316;53.840;10.762;2023-12-28T10:17:38;4.57;;;1.97;;
8556;SDS011;4316;53.840;10.762;2023-12-28T10:20:06;6.73;;;2.20;;
8556;SDS011;4316;53.840;10.762;2023-12-28T10:22:35;10.10;;;2.47;;
8556;SDS011;4316;53.840;10.762;2023-12-28T10:25:05;10.10;;;1.90;;
8556;SDS011;4316;53.840;10.762;2023-12-28T10:27:31;12.60;;;2.50;;
8556;SDS011;4316;53.840;10.762;2023-12-28T10:29:58;7.03;;;2.23;;
8556;SDS011;4316;53.840;10.762;2023-12-28T10:32:23;8.40;;;2.53;;
8556;SDS011;4316;53.840;10.762;2023-12-28T10:34:52;11.50;;;2.27;;
8556;SDS011;4316;53.840;10.762;2023-12-28T10:37:19;7.77;;;2.50;;
8556;SDS011;4316;53.840;10.762;2023-12-28T10:39:48;10.60;;;2.87;;
8556;SDS011;4316;53.840;10.762;2023-12-28T10:42:17;9.47;;;2.30;;
8556;SDS011;4316;53.840;10.762;2023-12-28T10:44:58;7.87;;;2.43;;
8556;SDS011;4316;53.840;10.762;2023-12-28T10:47:31;7.20;;;2.50;;
8556;SDS011;4316;53.840;10.762;2023-12-28T10:50:00;9.70;;;2.80;;
8556;SDS011;4316;53.840;10.762;2023-12-28T10:52:28;10.87;;;1.93;;
8556;SDS011;4316;53.840;10.762;2023-12-28T10:58:10;12.57;;;2.87;;
8556;SDS011;4316;53.840;10.762;2023-12-28T11:00:49;9.53;;;2.40;;
8556;SDS011;4316;53.840;10.762;2023-12-28T11:03:24;6.63;;;2.80;;
8556;SDS011;4316;53.840;10.762;2023-12-28T11:05:55;11.23;;;3.20;;
8556;SDS011;4316;53.840;10.762;2023-12-28T11:08:23;8.87;;;2.87;;
8556;SDS011;4316;53.840;10.762;2023-12-28T11:10:50;10.40;;;2.43;;
8556;SDS011;4316;53.840;10.762;2023-12-28T11:13:17;20.60;;;2.73;;
8556;SDS011;4316;53.840;10.762;2023-12-28T11:15:46;15.77;;;3.10;;
8556;SDS011;4316;53.840;10.762;2023-12-28T11:18:14;11.83;;;3.00;;
8556;SDS011;4316;53.840;10.762;2023-12-28T11:20:41;12.37;;;2.70;;
8556;SDS011;4316;53.840;10.762;2023-12-28T11:23:08;9.23;;;2.83;;
8556;SDS011;4316;53.840;10.762;2023-12-28T11:25:35;17.73;;;3.40;;
8556;SDS011;4316;53.840;10.762;2023-12-28T11:28:08;8.17;;;2.07;;
8556;SDS011;4316;53.840;10.762;2023-12-28T11:30:35;13.00;;;3.47;;
8556;SDS011;4316;53.840;10.762;2023-12-28T11:33:01;8.50;;;2.33;;
8556;SDS011;4316;53.840;10.762;2023-12-28T11:35:33;13.23;;;2.83;;
8556;SDS011;4316;53.840;10.762;2023-12-28T11:38:10;8.37;;;2.50;;
8556;SDS011;4316;53.840;10.762;2023-12-28T11:40:44;15.20;;;2.70;;
8556;SDS011;4316;53.840;10.762;2023-12-28T11:43:18;9.17;;;3.07;;
8556;SDS011;4316;53.840;10.762;2023-12-28T11:45:54;12.47;;;2.57;;
8556;SDS011;4316;53.840;10.762;2023-12-28T11:48:24;11.80;;;2.60;;
8556;SDS011;4316;53.840;10.762;2023-12-28T11:50:52;7.73;;;2.90;;
8556;SDS011;4316;53.840;10.762;2023-12-28T11:53:21;9.80;;;2.83;;
8556;SDS011;4316;53.840;10.762;2023-12-28T11:55:46;9.37;;;3.03;;
8556;SDS011;4316;53.840;10.762;2023-12-28T11:58:12;13.30;;;2.77;;
8556;SDS011;4316;53.840;10.762;2023-12-28T12:00:37;11.53;;;2.93;;
8556;SDS011;4316;53.840;10.762;2023-12-28T12:03:05;11.00;;;3.10;;
8556;SDS011;4316;53.840;10.762;2023-12-28T12:05:31;13.53;;;3.30;;
8556;SDS011;4316;53.840;10.762;2023-12-28T12:07:57;19.83;;;3.43;;
8556;SDS011;4316;53.840;10.762;2023-12-28T12:10:22;11.63;;;3.37;;
8556;SDS011;4316;53.840;10.762;2023-12-28T12:12:51;14.63;;;2.83;;
8556;SDS011;4316;53.840;10.762;2023-12-28T12:15:18;11.90;;;2.50;;
8556;SDS011;4316;53.840;10.762;2023-12-28T12:17:44;10.20;;;2.47;;
8556;SDS011;4316;53.840;10.762;2023-12-28T12:20:09;5.20;;;1.93;;
8556;SDS011;4316;53.840;10.762;2023-12-28T12:22:35;13.63;;;3.23;;
8556;SDS011;4316;53.840;10.762;2023-12-28T12:25:02;10.77;;;2.87;;
8556;SDS011;4316;53.840;10.762;2023-12-28T12:27:30;18.73;;;3.60;;
8556;SDS011;4316;53.840;10.762;2023-12-28T12:29:56;18.57;;;4.10;;
8556;SDS011;4316;53.840;10.762;2023-12-28T12:32:21;11.40;;;3.70;;
8556;SDS011;4316;53.840;10.762;2023-12-28T12:34:50;16.03;;;3.27;;
8556;SDS011;4316;53.840;10.762;2023-12-28T12:37:17;15.23;;;3.33;;
8556;SDS011;4316;53.840;10.762;2023-12-28T12:39:42;14.37;;;3.33;;
8556;SDS011;4316;53.840;10.762;2023-12-28T12:42:12;13.70;;;2.97;;
8556;SDS011;4316;53.840;10.762;2023-12-28T12:44:39;14.50;;;4.07;;
8556;SDS011;4316;53.840;10.762;2023-12-28T12:47:04;13.50;;;3.50;;
8556;SDS011;4316;53.840;10.762;2023-12-28T12:49:30;11.20;;;3.77;;
8556;SDS011;4316;53.840;10.762;2023-12-28T12:51:56;15.27;;;3.57;;
8556;SDS011;4316;53.840;10.762;2023-12-28T12:54:22;15.70;;;4.17;;
8556;SDS011;4316;53.840;10.762;2023-12-28T12:56:49;13.50;;;3.23;;
8556;SDS011;4316;53.840;10.762;2023-12-28T12:59:15;17.37;;;5.63;;
8556;SDS011;4316;53.840;10.762;2023-12-28T13:01:42;19.07;;;4.40;;
8556;SDS011;4316;53.840;10.762;2023-12-28T13:04:08;10.53;;;3.27;;
8556;SDS011;4316;53.840;10.762;2023-12-28T13:06:35;18.63;;;3.67;;
8556;SDS011;4316;53.840;10.762;2023-12-28T13:09:00;19.80;;;4.97;;
8556;SDS011;4316;53.840;10.762;2023-12-28T13:11:26;8.10;;;3.00;;
8556;SDS011;4316;53.840;10.762;2023-12-28T13:13:52;22.43;;;4.83;;
8556;SDS011;4316;53.840;10.762;2023-12-28T13:16:18;22.70;;;7.97;;
8556;SDS011;4316;53.840;10.762;2023-12-28T13:18:44;15.53;;;4.70;;
8556;SDS011;4316;53.840;10.762;2023-12-28T13:21:09;15.53;;;4.20;;
8556;SDS011;4316;53.840;10.762;2023-12-28T13:23:35;20.53;;;4.63;;
8556;SDS011;4316;53.840;10.762;2023-12-28T13:26:01;21.37;;;3.67;;
8556;SDS011;4316;53.840;10.762;2023-12-28T13:28:26;16.50;;;4.73;;
8556;SDS011;4316;53.840;10.762;2023-12-28T13:30:52;22.93;;;4.97;;
8556;SDS011;4316;53.840;10.762;2023-12-28T13:33:21;36.03;;;14.70;;
8556;SDS011;4316;53.840;10.762;2023-12-28T13:35:47;14.80;;;5.10;;
8556;SDS011;4316;53.840;10.762;2023-12-28T13:38:12;12.70;;;3.97;;
8556;SDS011;4316;53.840;10.762;2023-12-28T13:40:38;15.23;;;6.40;;
8556;SDS011;4316;53.840;10.762;2023-12-28T13:43:03;20.73;;;6.03;;
8556;SDS011;4316;53.840;10.762;2023-12-28T13:45:29;14.50;;;4.20;;
8556;SDS011;4316;53.840;10.762;2023-12-28T13:47:54;27.47;;;4.63;;
8556;SDS011;4316;53.840;10.762;2023-12-28T13:50:20;16.53;;;5.20;;
8556;SDS011;4316;53.840;10.762;2023-12-28T13:52:46;16.07;;;5.17;;
8556;SDS011;4316;53.840;10.762;2023-12-28T13:55:11;21.30;;;3.43;;
8556;SDS011;4316;53.840;10.762;2023-12-28T13:57:37;17.97;;;3.93;;
8556;SDS011;4316;53.840;10.762;2023-12-28T14:00:03;10.43;;;3.20;;
8556;SDS011;4316;53.840;10.762;2023-12-28T14:02:37;16.43;;;3.73;;
8556;SDS011;4316;53.840;10.762;2023-12-28T14:05:03;16.37;;;3.43;;
8556;SDS011;4316;53.840;10.762;2023-12-28T14:07:29;16.23;;;3.73;;
8556;SDS011;4316;53.840;10.762;2023-12-28T14:09:55;11.27;;;3.00;;
8556;SDS011;4316;53.840;10.762;2023-12-28T14:12:20;23.17;;;3.63;;
8556;SDS011;4316;53.840;10.762;2023-12-28T14:14:46;11.63;;;3.23;;
8556;SDS011;4316;53.840;10.762;2023-12-28T14:17:11;12.63;;;3.80;;
8556;SDS011;4316;53.840;10.762;2023-12-28T14:19:37;9.97;;;3.20;;
8556;SDS011;4316;53.840;10.762;2023-12-28T14:22:03;17.00;;;3.60;;
8556;SDS011;4316;53.840;10.762;2023-12-28T14:24:29;16.83;;;4.33;;
8556;SDS011;4316;53.840;10.762;2023-12-28T14:26:55;16.43;;;2.87;;
8556;SDS011;4316;53.840;10.762;2023-12-28T14:29:21;10.23;;;2.53;;
8556;SDS011;4316;53.840;10.762;2023-12-28T14:31:48;12.20;;;2.67;;
8556;SDS011;4316;53.840;10.762;2023-12-28T14:34:14;20.67;;;4.07;;
8556;SDS011;4316;53.840;10.762;2023-12-28T14:36:40;15.87;;;3.23;;
8556;SDS011;4316;53.840;10.762;2023-12-28T14:39:09;12.90;;;3.77;;
8556;SDS011;4316;53.840;10.762;2023-12-28T14:41:34;13.07;;;4.50;;
8556;SDS011;4316;53.840;10.762;2023-12-28T14:44:01;14.57;;;3.43;;
8556;SDS011;4316;53.840;10.762;2023-12-28T14:46:27;21.70;;;5.50;;
8556;SDS011;4316;53.840;10.762;2023-12-28T14:48:53;16.77;;;3.60;;
8556;SDS011;4316;53.840;10.762;2023-12-28T14:51:19;16.37;;;3.80;;
8556;SDS011;4316;53.840;10.762;2023-12-28T14:53:45;18.53;;;4.10;;
8556;SDS011;4316;53.840;10.762;2023-12-28T14:56:11;16.10;;;4.30;;
8556;SDS011;4316;53.840;10.762;2023-12-28T14:58:37;9.20;;;2.80;;